createdAt,value
2019-05-30T00:00:44.407Z,1005.82
2019-05-30T00:01:44.424Z,1005.82
2019-05-30T00:02:44.388Z,1005.84
2019-05-30T00:03:44.376Z,1005.86
2019-05-30T00:04:44.396Z,1005.84
2019-05-30T00:05:44.408Z,1005.89
2019-05-30T00:06:44.377Z,1005.95
2019-05-30T00:07:44.328Z,1005.95
2019-05-30T00:08:44.358Z,1005.87
2019-05-30T00:09:44.362Z,1005.94
2019-05-30T00:10:44.295Z,1005.98
2019-05-30T00:11:44.293Z,1005.98
2019-05-30T00:12:44.275Z,1005.95
2019-05-30T00:13:44.288Z,1005.94
2019-05-30T00:14:44.263Z,1005.96
2019-05-30T00:15:44.242Z,1005.98
2019-05-30T00:16:44.246Z,1006.01
2019-05-30T00:17:44.232Z,1005.95
2019-05-30T00:18:44.203Z,1005.98
2019-05-30T00:19:44.222Z,1005.97
2019-05-30T00:20:44.205Z,1006.03
2019-05-30T00:21:44.203Z,1005.96
2019-05-30T00:22:44.185Z,1006.01
2019-05-30T00:23:44.165Z,1005.95
2019-05-30T00:24:44.193Z,1006.00
2019-05-30T00:25:44.144Z,1006.01
2019-05-30T00:26:44.138Z,1006.00
2019-05-30T00:27:55.059Z,1006.00
2019-05-30T00:28:44.110Z,1005.95
2019-05-30T00:29:44.086Z,1006.03
2019-05-30T00:30:44.099Z,1006.01
2019-05-30T00:31:44.078Z,1006.05
2019-05-30T00:32:44.067Z,1006.07
2019-05-30T00:33:44.058Z,1006.03
2019-05-30T00:34:44.037Z,1006.11
2019-05-30T00:35:44.050Z,1006.13
2019-05-30T00:36:44.032Z,1006.12
2019-05-30T00:37:44.021Z,1006.16
2019-05-30T00:38:44.006Z,1006.17
2019-05-30T00:39:43.998Z,1006.15
2019-05-30T00:40:43.986Z,1006.13
2019-05-30T00:41:43.975Z,1006.13
2019-05-30T00:42:43.968Z,1006.20
2019-05-30T00:43:43.944Z,1006.24
2019-05-30T00:44:43.945Z,1006.22
2019-05-30T00:45:43.942Z,1006.21
2019-05-30T00:46:43.934Z,1006.21
2019-05-30T00:47:43.905Z,1006.22
2019-05-30T00:48:43.922Z,1006.21
2019-05-30T00:49:43.924Z,1006.22
2019-05-30T00:50:43.875Z,1006.25
2019-05-30T00:51:43.895Z,1006.26
2019-05-30T00:52:43.863Z,1006.30
2019-05-30T00:53:43.859Z,1006.34
2019-05-30T00:54:43.856Z,1006.32
2019-05-30T00:55:43.863Z,1006.32
2019-05-30T00:56:43.810Z,1006.41
2019-05-30T00:57:43.792Z,1006.32
2019-05-30T00:58:53.724Z,1006.38
2019-05-30T00:59:43.769Z,1006.42
2019-05-30T01:00:44.439Z,1006.44
2019-05-30T01:01:43.799Z,1006.45
2019-05-30T01:02:43.754Z,1006.47
2019-05-30T01:03:43.727Z,1006.54
2019-05-30T01:04:43.736Z,1006.53
2019-05-30T01:05:43.717Z,1006.50
2019-05-30T01:06:43.697Z,1006.57
2019-05-30T01:07:43.740Z,1006.54
2019-05-30T01:08:43.681Z,1006.62
2019-05-30T01:09:43.689Z,1006.59
2019-05-30T01:10:43.670Z,1006.71
2019-05-30T01:11:43.655Z,1006.58
2019-05-30T01:12:43.668Z,1006.63
2019-05-30T01:13:43.645Z,1006.63
2019-05-30T01:14:43.626Z,1006.68
2019-05-30T01:15:43.606Z,1006.62
2019-05-30T01:16:43.617Z,1006.69
2019-05-30T01:17:43.643Z,1006.74
2019-05-30T01:18:43.597Z,1006.79
2019-05-30T01:19:43.594Z,1006.75
2019-05-30T01:20:43.565Z,1006.78
2019-05-30T01:21:43.555Z,1006.75
2019-05-30T01:22:43.544Z,1006.75
2019-05-30T01:23:43.554Z,1006.89
2019-05-30T01:24:43.516Z,1006.78
2019-05-30T01:25:43.510Z,1006.83
2019-05-30T01:26:43.481Z,1006.82
2019-05-30T01:27:43.492Z,1006.82
2019-05-30T01:28:43.492Z,1006.84
2019-05-30T01:29:55.419Z,1006.80
2019-05-30T01:30:59.045Z,1006.95
2019-05-30T01:31:44.427Z,1006.93
2019-05-30T01:32:43.418Z,1006.94
2019-05-30T01:33:43.417Z,1006.98
2019-05-30T01:34:43.452Z,1006.90
2019-05-30T01:35:43.398Z,1006.89
2019-05-30T01:36:43.376Z,1006.95
2019-05-30T01:37:43.378Z,1006.91
2019-05-30T01:38:43.356Z,1006.93
2019-05-30T01:39:43.361Z,1006.97
2019-05-30T01:40:43.364Z,1007.02
2019-05-30T01:41:43.356Z,1007.02
2019-05-30T01:42:43.316Z,1007.01
2019-05-30T01:43:43.309Z,1007.02
2019-05-30T01:44:43.299Z,1007.07
2019-05-30T01:45:43.299Z,1007.09
2019-05-30T01:46:43.290Z,1007.08
2019-05-30T01:47:43.279Z,1007.06
2019-05-30T01:48:43.251Z,1007.12
2019-05-30T01:49:43.256Z,1007.04
2019-05-30T01:50:43.241Z,1007.17
2019-05-30T01:51:43.224Z,1007.06
2019-05-30T01:52:43.223Z,1007.12
2019-05-30T01:53:43.205Z,1007.09
2019-05-30T01:54:43.203Z,1007.13
2019-05-30T01:55:43.253Z,1007.11
2019-05-30T01:56:43.162Z,1007.17
2019-05-30T01:57:43.164Z,1007.14
2019-05-30T01:58:43.165Z,1007.16
2019-05-30T01:59:43.132Z,1007.16
2019-05-30T02:00:54.441Z,1007.24
2019-05-30T02:01:43.121Z,1007.21
2019-05-30T02:02:43.108Z,1007.22
2019-05-30T02:03:43.099Z,1007.20
2019-05-30T02:04:43.089Z,1007.27
2019-05-30T02:05:43.116Z,1007.28
2019-05-30T02:06:43.068Z,1007.26
2019-05-30T02:07:43.046Z,1007.33
2019-05-30T02:08:43.048Z,1007.29
2019-05-30T02:09:43.027Z,1007.33
2019-05-30T02:10:43.014Z,1007.34
2019-05-30T02:11:43.061Z,1007.37
2019-05-30T02:12:43.013Z,1007.34
2019-05-30T02:13:42.986Z,1007.41
2019-05-30T02:14:42.991Z,1007.49
2019-05-30T02:15:42.964Z,1007.52
2019-05-30T02:16:42.953Z,1007.50
2019-05-30T02:17:42.968Z,1007.47
2019-05-30T02:18:42.954Z,1007.46
2019-05-30T02:19:42.927Z,1007.57
2019-05-30T02:20:42.914Z,1007.53
2019-05-30T02:21:42.903Z,1007.57
2019-05-30T02:22:42.905Z,1007.57
2019-05-30T02:23:42.890Z,1007.60
2019-05-30T02:24:42.884Z,1007.52
2019-05-30T02:25:42.865Z,1007.61
2019-05-30T02:26:42.862Z,1007.56
2019-05-30T02:27:42.861Z,1007.58
2019-05-30T02:28:42.835Z,1007.62
2019-05-30T02:29:42.826Z,1007.58
2019-05-30T02:30:42.813Z,1007.64
2019-05-30T02:31:53.361Z,1007.60
2019-05-30T02:32:42.863Z,1007.66
2019-05-30T02:33:42.768Z,1007.68
2019-05-30T02:34:42.769Z,1007.62
2019-05-30T02:35:42.760Z,1007.71
2019-05-30T02:36:42.757Z,1007.64
2019-05-30T02:37:42.741Z,1007.71
2019-05-30T02:38:42.726Z,1007.70
2019-05-30T02:39:42.712Z,1007.76
2019-05-30T02:40:42.709Z,1007.75
2019-05-30T02:41:42.700Z,1007.78
2019-05-30T02:42:42.683Z,1007.68
2019-05-30T02:43:42.705Z,1007.74
2019-05-30T02:44:42.669Z,1007.71
2019-05-30T02:45:42.663Z,1007.67
2019-05-30T02:46:42.637Z,1007.74
2019-05-30T02:47:42.638Z,1007.75
2019-05-30T02:48:58.037Z,1007.76
2019-05-30T02:49:43.629Z,1007.73
2019-05-30T02:50:42.611Z,1007.72
2019-05-30T02:51:42.596Z,1007.85
2019-05-30T02:52:42.577Z,1007.77
2019-05-30T02:53:42.579Z,1007.75
2019-05-30T02:54:42.563Z,1007.74
2019-05-30T02:55:42.538Z,1007.72
2019-05-30T02:56:42.539Z,1007.82
2019-05-30T02:57:42.556Z,1007.77
2019-05-30T02:58:42.521Z,1007.77
2019-05-30T02:59:42.520Z,1007.73
2019-05-30T03:00:42.516Z,1007.75
2019-05-30T03:01:58.890Z,1007.78
2019-05-30T03:02:52.788Z,1007.82
2019-05-30T03:03:42.471Z,1007.78
2019-05-30T03:04:42.478Z,1007.81
2019-05-30T03:05:42.434Z,1007.86
2019-05-30T03:06:42.417Z,1007.82
2019-05-30T03:07:42.420Z,1007.83
2019-05-30T03:08:42.419Z,1007.86
2019-05-30T03:09:42.396Z,1007.86
2019-05-30T03:10:42.409Z,1007.88
2019-05-30T03:11:42.382Z,1007.81
2019-05-30T03:12:42.379Z,1007.82
2019-05-30T03:13:42.357Z,1007.84
2019-05-30T03:14:42.363Z,1007.89
2019-05-30T03:15:42.373Z,1007.85
2019-05-30T03:16:42.330Z,1007.89
2019-05-30T03:17:42.307Z,1007.89
2019-05-30T03:18:42.307Z,1007.87
2019-05-30T03:19:42.284Z,1007.87
2019-05-30T03:20:42.279Z,1007.90
2019-05-30T03:21:42.286Z,1007.87
2019-05-30T03:22:42.254Z,1007.91
2019-05-30T03:23:42.243Z,1007.95
2019-05-30T03:24:42.238Z,1007.97
2019-05-30T03:25:42.224Z,1008.01
2019-05-30T03:26:42.223Z,1008.06
2019-05-30T03:27:42.216Z,1008.09
2019-05-30T03:28:42.215Z,1008.07
2019-05-30T03:29:42.186Z,1008.04
2019-05-30T03:30:42.189Z,1008.10
2019-05-30T03:31:42.175Z,1008.15
2019-05-30T03:33:05.340Z,1008.13
2019-05-30T03:33:52.037Z,1008.15
2019-05-30T03:34:42.141Z,1008.17
2019-05-30T03:35:43.916Z,1008.17
2019-05-30T03:36:42.165Z,1008.09
2019-05-30T03:37:42.097Z,1008.09
2019-05-30T03:38:42.087Z,1008.17
2019-05-30T03:39:42.088Z,1008.20
2019-05-30T03:40:42.065Z,1008.16
2019-05-30T03:41:42.047Z,1008.21
2019-05-30T03:42:42.049Z,1008.20
2019-05-30T03:43:42.030Z,1008.18
2019-05-30T03:44:42.018Z,1008.22
2019-05-30T03:45:42.007Z,1008.22
2019-05-30T03:46:42.013Z,1008.26
2019-05-30T03:47:42.066Z,1008.12
2019-05-30T03:48:41.997Z,1008.19
2019-05-30T03:49:42.007Z,1008.19
2019-05-30T03:50:41.962Z,1008.26
2019-05-30T03:51:41.957Z,1008.20
2019-05-30T03:52:41.991Z,1008.24
2019-05-30T03:53:41.947Z,1008.25
2019-05-30T03:54:41.931Z,1008.27
2019-05-30T03:55:41.935Z,1008.30
2019-05-30T03:56:41.923Z,1008.29
2019-05-30T03:57:41.900Z,1008.38
2019-05-30T03:58:41.904Z,1008.30
2019-05-30T03:59:41.865Z,1008.42
2019-05-30T04:00:41.854Z,1008.33
2019-05-30T04:01:41.865Z,1008.35
2019-05-30T04:02:55.934Z,1008.37
2019-05-30T04:03:42.852Z,1008.38
2019-05-30T04:04:52.430Z,1008.37
2019-05-30T04:05:41.812Z,1008.44
2019-05-30T04:06:41.803Z,1008.46
2019-05-30T04:07:41.769Z,1008.41
2019-05-30T04:08:41.802Z,1008.43
2019-05-30T04:09:41.760Z,1008.41
2019-05-30T04:10:41.753Z,1008.42
2019-05-30T04:11:41.750Z,1008.40
2019-05-30T04:12:41.727Z,1008.44
2019-05-30T04:13:41.711Z,1008.42
2019-05-30T04:14:41.708Z,1008.46
2019-05-30T04:15:41.689Z,1008.47
2019-05-30T04:16:41.680Z,1008.45
2019-05-30T04:17:41.670Z,1008.44
2019-05-30T04:18:41.660Z,1008.51
2019-05-30T04:19:41.664Z,1008.56
2019-05-30T04:20:41.640Z,1008.56
2019-05-30T04:21:41.657Z,1008.51
2019-05-30T04:22:41.617Z,1008.48
2019-05-30T04:23:41.617Z,1008.49
2019-05-30T04:24:41.619Z,1008.49
2019-05-30T04:25:41.599Z,1008.46
2019-05-30T04:26:41.598Z,1008.55
2019-05-30T04:27:41.564Z,1008.48
2019-05-30T04:28:41.577Z,1008.53
2019-05-30T04:29:41.588Z,1008.55
2019-05-30T04:30:41.555Z,1008.61
2019-05-30T04:31:41.571Z,1008.54
2019-05-30T04:32:41.524Z,1008.48
2019-05-30T04:33:41.517Z,1008.50
2019-05-30T04:34:41.483Z,1008.48
2019-05-30T04:35:52.901Z,1008.46
2019-05-30T04:36:41.470Z,1008.50
2019-05-30T04:37:41.453Z,1008.53
2019-05-30T04:38:41.441Z,1008.55
2019-05-30T04:39:41.443Z,1008.55
2019-05-30T04:40:41.443Z,1008.55
2019-05-30T04:41:41.411Z,1008.50
2019-05-30T04:42:41.412Z,1008.51
2019-05-30T04:43:41.403Z,1008.54
2019-05-30T04:44:41.393Z,1008.55
2019-05-30T04:45:41.394Z,1008.53
2019-05-30T04:46:41.360Z,1008.56
2019-05-30T04:47:41.403Z,1008.60
2019-05-30T04:48:41.356Z,1008.59
2019-05-30T04:49:41.339Z,1008.68
2019-05-30T04:50:41.345Z,1008.61
2019-05-30T04:51:41.350Z,1008.61
2019-05-30T04:52:41.309Z,1008.69
2019-05-30T04:53:41.366Z,1008.69
2019-05-30T04:54:41.287Z,1008.68
2019-05-30T04:55:41.288Z,1008.63
2019-05-30T04:56:41.269Z,1008.67
2019-05-30T04:57:41.310Z,1008.64
2019-05-30T04:58:42.554Z,1008.70
2019-05-30T04:59:41.226Z,1008.75
2019-05-30T05:00:41.239Z,1008.61
2019-05-30T05:01:41.233Z,1008.70
2019-05-30T05:02:41.216Z,1008.65
2019-05-30T05:03:45.757Z,1008.72
2019-05-30T05:04:42.207Z,1008.76
2019-05-30T05:05:41.170Z,1008.75
2019-05-30T05:06:51.313Z,1008.76
2019-05-30T05:07:41.152Z,1008.65
2019-05-30T05:08:41.144Z,1008.76
2019-05-30T05:09:41.127Z,1008.75
2019-05-30T05:10:41.103Z,1008.75
2019-05-30T05:11:41.104Z,1008.74
2019-05-30T05:12:41.103Z,1008.75
2019-05-30T05:13:41.931Z,1008.79
2019-05-30T05:14:41.070Z,1008.77
2019-05-30T05:15:41.071Z,1008.88
2019-05-30T05:16:41.058Z,1008.84
2019-05-30T05:17:41.074Z,1008.78
2019-05-30T05:18:41.047Z,1008.83
2019-05-30T05:19:41.020Z,1008.89
2019-05-30T05:20:41.018Z,1008.83
2019-05-30T05:21:40.999Z,1008.92
2019-05-30T05:22:40.990Z,1008.86
2019-05-30T05:23:41.030Z,1008.90
2019-05-30T05:24:40.993Z,1008.91
2019-05-30T05:25:40.971Z,1008.88
2019-05-30T05:26:40.951Z,1008.91
2019-05-30T05:27:41.592Z,1008.91
2019-05-30T05:28:40.954Z,1008.96
2019-05-30T05:29:40.922Z,1008.92
2019-05-30T05:30:40.929Z,1008.87
2019-05-30T05:31:40.893Z,1009.02
2019-05-30T05:32:41.624Z,1008.91
2019-05-30T05:33:55.692Z,1008.95
2019-05-30T05:34:41.885Z,1008.91
2019-05-30T05:35:40.897Z,1008.95
2019-05-30T05:36:40.857Z,1008.91
2019-05-30T05:37:50.976Z,1008.89
2019-05-30T05:38:40.847Z,1008.93
2019-05-30T05:39:40.806Z,1008.91
2019-05-30T05:40:40.836Z,1008.95
2019-05-30T05:41:40.784Z,1008.92
2019-05-30T05:42:40.777Z,1009.03
2019-05-30T05:43:40.754Z,1009.00
2019-05-30T05:44:40.764Z,1008.96
2019-05-30T05:45:40.745Z,1008.97
2019-05-30T05:46:40.736Z,1008.99
2019-05-30T05:47:40.715Z,1008.97
2019-05-30T05:48:40.726Z,1008.96
2019-05-30T05:49:40.708Z,1008.99
2019-05-30T05:50:40.682Z,1009.01
2019-05-30T05:51:40.691Z,1008.99
2019-05-30T05:52:40.660Z,1009.12
2019-05-30T05:53:40.644Z,1009.03
2019-05-30T05:54:40.648Z,1009.03
2019-05-30T05:55:40.650Z,1009.07
2019-05-30T05:56:40.619Z,1009.01
2019-05-30T05:57:40.621Z,1009.05
2019-05-30T05:58:40.615Z,1009.02
2019-05-30T05:59:40.662Z,1009.02
2019-05-30T06:00:40.591Z,1009.09
2019-05-30T06:01:40.621Z,1009.12
2019-05-30T06:02:40.592Z,1009.06
2019-05-30T06:03:40.540Z,1009.11
2019-05-30T06:04:40.550Z,1009.11
2019-05-30T06:05:52.577Z,1009.08
2019-05-30T06:06:41.579Z,1009.13
2019-05-30T06:07:40.511Z,1009.12
2019-05-30T06:08:50.480Z,1009.17
2019-05-30T06:09:40.488Z,1009.16
2019-05-30T06:10:40.468Z,1009.17
2019-05-30T06:11:40.459Z,1009.19
2019-05-30T06:12:40.475Z,1009.14
2019-05-30T06:13:40.446Z,1009.08
2019-05-30T06:14:40.446Z,1009.13
2019-05-30T06:15:40.429Z,1009.12
2019-05-30T06:16:40.428Z,1009.13
2019-05-30T06:17:40.416Z,1009.15
2019-05-30T06:18:40.425Z,1009.15
2019-05-30T06:37:40.207Z,1009.25
2019-05-30T06:38:40.196Z,1009.27
2019-05-30T06:39:51.370Z,1009.32
2019-05-30T06:46:40.110Z,1009.28
2019-05-30T07:09:39.858Z,1009.31
2019-05-30T07:10:50.055Z,1009.38
2019-05-30T07:17:39.751Z,1009.36
2019-05-30T07:39:39.533Z,1009.57
2019-05-30T07:40:39.534Z,1009.51
2019-05-30T07:48:39.423Z,1009.47
2019-05-30T08:10:39.214Z,1009.53
2019-05-30T08:11:39.259Z,1009.52
2019-05-30T08:19:39.097Z,1009.65
2019-05-30T08:42:40.179Z,1009.62
2019-05-30T08:50:44.071Z,1009.52
2019-05-30T09:12:40.394Z,1009.85
2019-05-30T09:13:38.902Z,1009.78
2019-05-30T09:21:39.769Z,1009.74
2019-05-30T09:44:38.199Z,1009.71
2019-05-30T09:52:38.092Z,1009.67
2019-05-30T09:53:38.109Z,1009.70
2019-05-30T09:55:38.074Z,1009.67
2019-05-30T09:56:38.070Z,1009.68
2019-05-30T09:57:38.039Z,1009.73
2019-05-30T09:58:38.064Z,1009.70
2019-05-30T09:59:38.052Z,1009.56
2019-05-30T10:00:38.098Z,1009.52
2019-05-30T10:01:38.013Z,1009.58
2019-05-30T10:02:38.004Z,1009.52
2019-05-30T10:03:37.979Z,1009.51
2019-05-30T10:04:38.003Z,1009.49
2019-05-30T10:05:37.950Z,1009.63
2019-05-30T10:06:37.972Z,1009.57
2019-05-30T10:07:37.930Z,1009.55
2019-05-30T10:08:37.960Z,1009.55
2019-05-30T10:09:37.941Z,1009.56
2019-05-30T10:10:37.899Z,1009.46
2019-05-30T10:11:37.899Z,1009.62
2019-05-30T10:12:37.922Z,1009.53
2019-05-30T10:13:37.923Z,1009.51
2019-05-30T10:14:37.867Z,1009.57
2019-05-30T10:15:37.879Z,1009.63
2019-05-30T10:16:54.356Z,1009.68
2019-05-30T10:18:37.824Z,1009.68
2019-05-30T10:19:37.831Z,1009.63
2019-05-30T10:20:37.803Z,1009.69
2019-05-30T10:21:37.780Z,1009.65
2019-05-30T10:22:37.773Z,1009.65
2019-05-30T10:23:37.840Z,1009.65
2019-05-30T10:24:37.749Z,1009.63
2019-05-30T10:26:37.774Z,1009.64
2019-05-30T10:27:37.749Z,1009.57
2019-05-30T10:28:37.733Z,1009.64
2019-05-30T10:29:37.711Z,1009.54
2019-05-30T10:30:37.773Z,1009.53
2019-05-30T10:31:37.706Z,1009.62
2019-05-30T10:32:37.662Z,1009.60
2019-05-30T10:33:37.663Z,1009.60
2019-05-30T10:34:37.648Z,1009.54
2019-05-30T10:35:37.660Z,1009.54
2019-05-30T10:36:44.120Z,1009.52
2019-05-30T10:37:38.623Z,1009.56
2019-05-30T10:38:37.628Z,1009.58
2019-05-30T10:39:37.613Z,1009.54
2019-05-30T10:40:37.634Z,1009.54
2019-05-30T10:41:37.569Z,1009.52
2019-05-30T10:42:37.591Z,1009.41
2019-05-30T10:43:37.570Z,1009.54
2019-05-30T10:44:37.580Z,1009.54
2019-05-30T10:45:38.742Z,1009.58
2019-05-30T10:46:37.529Z,1009.54
2019-05-30T10:47:47.623Z,1009.55
2019-05-30T10:49:37.498Z,1009.51
2019-05-30T10:50:37.489Z,1009.47
2019-05-30T10:51:37.496Z,1009.51
2019-05-30T10:52:37.466Z,1009.44
2019-05-30T10:53:37.864Z,1009.43
2019-05-30T10:54:37.451Z,1009.49
2019-05-30T10:55:37.447Z,1009.56
2019-05-30T10:57:37.490Z,1009.53
2019-05-30T10:58:37.421Z,1009.59
2019-05-30T10:59:37.383Z,1009.62
2019-05-30T11:00:37.387Z,1009.50
2019-05-30T11:01:37.363Z,1009.43
2019-05-30T11:02:37.363Z,1009.41
2019-05-30T11:03:37.357Z,1009.37
2019-05-30T11:04:37.346Z,1009.52
2019-05-30T11:05:37.335Z,1009.51
2019-05-30T11:06:37.367Z,1009.51
2019-05-30T11:07:37.327Z,1009.47
2019-05-30T11:08:37.301Z,1009.49
2019-05-30T11:09:37.296Z,1009.46
2019-05-30T11:10:37.300Z,1009.54
2019-05-30T11:11:37.276Z,1009.48
2019-05-30T11:12:37.284Z,1009.45
2019-05-30T11:13:37.253Z,1009.51
2019-05-30T11:14:37.258Z,1009.48
2019-05-30T11:15:37.226Z,1009.50
2019-05-30T11:16:37.217Z,1009.51
2019-05-30T11:17:37.234Z,1009.56
2019-05-30T11:18:47.522Z,1009.59
2019-05-30T11:20:37.169Z,1009.51
2019-05-30T11:21:37.162Z,1009.47
2019-05-30T11:22:37.150Z,1009.46
2019-05-30T11:23:37.151Z,1009.48
2019-05-30T11:24:37.131Z,1009.44
2019-05-30T11:25:37.121Z,1009.38
2019-05-30T11:26:37.097Z,1009.33
2019-05-30T11:28:37.107Z,1009.39
2019-05-30T11:29:37.417Z,1009.43
2019-05-30T11:30:37.067Z,1009.41
2019-05-30T11:31:37.052Z,1009.38
2019-05-30T11:32:37.049Z,1009.44
2019-05-30T11:33:37.038Z,1009.34
2019-05-30T11:34:37.047Z,1009.48
2019-05-30T11:35:37.026Z,1009.40
2019-05-30T11:36:36.999Z,1009.53
2019-05-30T11:37:37.000Z,1009.49
2019-05-30T11:38:36.979Z,1009.38
2019-05-30T11:39:36.980Z,1009.47
2019-05-30T11:40:36.969Z,1009.40
2019-05-30T11:41:36.950Z,1009.40
2019-05-30T11:42:36.929Z,1009.47
2019-05-30T11:43:36.921Z,1009.49
2019-05-30T11:44:36.946Z,1009.59
2019-05-30T11:45:36.899Z,1009.54
2019-05-30T11:46:36.887Z,1009.70
2019-05-30T11:47:36.890Z,1009.61
2019-05-30T11:48:36.889Z,1009.38
2019-05-30T11:49:46.962Z,1009.46
2019-05-30T11:51:36.832Z,1009.41
2019-05-30T11:52:36.834Z,1009.49
2019-05-30T11:53:36.824Z,1009.50
2019-05-30T11:54:36.803Z,1009.53
2019-05-30T11:55:36.817Z,1009.47
2019-05-30T11:56:36.804Z,1009.49
2019-05-30T11:57:36.802Z,1009.57
2019-05-30T11:58:36.775Z,1009.48
2019-05-30T11:59:36.751Z,1009.57
2019-05-30T12:00:36.751Z,1009.49
2019-05-30T12:01:36.751Z,1009.50
2019-05-30T12:02:36.721Z,1009.48
2019-05-30T12:03:36.726Z,1009.44
2019-05-30T12:04:36.703Z,1009.66
2019-05-30T12:05:36.715Z,1009.60
2019-05-30T12:06:36.682Z,1009.58
2019-05-30T12:07:37.072Z,1009.57
2019-05-30T12:08:36.664Z,1009.56
2019-05-30T12:09:36.664Z,1009.59
2019-05-30T12:10:36.663Z,1009.56
2019-05-30T12:11:36.638Z,1009.51
2019-05-30T12:12:36.656Z,1009.51
2019-05-30T12:13:36.615Z,1009.43
2019-05-30T12:14:36.592Z,1009.52
2019-05-30T12:15:36.602Z,1009.55
2019-05-30T12:16:36.977Z,1009.45
2019-05-30T12:17:36.583Z,1009.47
2019-05-30T12:18:36.671Z,1009.45
2019-05-30T12:19:36.543Z,1009.45
2019-05-30T12:20:47.145Z,1009.46
2019-05-30T12:21:36.525Z,1009.54
2019-05-30T12:22:36.517Z,1009.50
2019-05-30T12:23:36.555Z,1009.49
2019-05-30T12:24:36.483Z,1009.45
2019-05-30T12:25:36.473Z,1009.55
2019-05-30T12:26:36.472Z,1009.50
2019-05-30T12:27:36.490Z,1009.48
2019-05-30T12:28:36.446Z,1009.49
2019-05-30T12:29:36.447Z,1009.46
2019-05-30T12:30:36.442Z,1009.39
2019-05-30T12:31:36.433Z,1009.48
2019-05-30T12:32:36.414Z,1009.60
2019-05-30T12:33:36.425Z,1009.56
2019-05-30T12:34:36.398Z,1009.57
2019-05-30T12:35:36.452Z,1009.55
2019-05-30T12:36:36.384Z,1009.53
2019-05-30T12:37:52.969Z,1009.56
2019-05-30T12:38:37.344Z,1009.52
2019-05-30T12:39:36.343Z,1009.59
2019-05-30T12:40:36.362Z,1009.60
2019-05-30T12:41:36.315Z,1009.51
2019-05-30T12:42:36.293Z,1009.52
2019-05-30T12:43:36.293Z,1009.47
2019-05-30T12:44:36.325Z,1009.51
2019-05-30T12:45:36.288Z,1009.51
2019-05-30T12:46:36.265Z,1009.55
2019-05-30T12:47:36.251Z,1009.50
2019-05-30T12:48:36.244Z,1009.53
2019-05-30T12:49:36.225Z,1009.54
2019-05-30T12:50:36.229Z,1009.52
2019-05-30T12:51:46.467Z,1009.60
2019-05-30T12:52:36.206Z,1009.57
2019-05-30T12:53:36.188Z,1009.57
2019-05-30T12:54:36.167Z,1009.54
2019-05-30T12:55:37.684Z,1009.42
2019-05-30T12:56:36.153Z,1009.54
2019-05-30T12:57:36.168Z,1009.50
2019-05-30T12:58:36.160Z,1009.50
2019-05-30T12:59:36.138Z,1009.47
2019-05-30T13:00:36.108Z,1009.44
2019-05-30T13:01:36.107Z,1009.35
2019-05-30T13:02:36.098Z,1009.41
2019-05-30T13:03:36.115Z,1009.43
2019-05-30T13:04:36.116Z,1009.40
2019-05-30T13:05:36.069Z,1009.38
2019-05-30T13:06:36.052Z,1009.42
2019-05-30T13:07:36.048Z,1009.34
2019-05-30T13:08:36.036Z,1009.48
2019-05-30T13:09:36.030Z,1009.35
2019-05-30T13:10:36.044Z,1009.33
2019-05-30T13:11:36.031Z,1009.38
2019-05-30T13:12:35.975Z,1009.41
2019-05-30T13:13:35.973Z,1009.37
2019-05-30T13:14:35.962Z,1009.38
2019-05-30T13:15:35.946Z,1009.40
2019-05-30T13:16:35.976Z,1009.31
2019-05-30T13:17:35.932Z,1009.34
2019-05-30T13:18:35.971Z,1009.48
2019-05-30T13:19:35.904Z,1009.47
2019-05-30T13:20:35.904Z,1009.36
2019-05-30T13:21:35.899Z,1009.34
2019-05-30T13:22:46.630Z,1009.28
2019-05-30T13:23:35.938Z,1009.40
2019-05-30T13:24:35.871Z,1009.33
2019-05-30T13:25:35.858Z,1009.29
2019-05-30T13:26:35.849Z,1009.41
2019-05-30T13:27:35.828Z,1009.38
2019-05-30T13:28:35.822Z,1009.27
2019-05-30T13:29:35.817Z,1009.32
2019-05-30T13:30:35.812Z,1009.33
2019-05-30T13:31:35.802Z,1009.33
2019-05-30T13:32:35.791Z,1009.36
2019-05-30T13:33:38.310Z,1009.28
2019-05-30T13:34:35.768Z,1009.24
2019-05-30T13:35:35.754Z,1009.28
2019-05-30T13:36:35.737Z,1009.36
2019-05-30T13:37:35.791Z,1009.25
2019-05-30T13:38:35.722Z,1009.36
2019-05-30T13:39:35.699Z,1009.33
2019-05-30T13:40:35.716Z,1009.31
2019-05-30T13:41:35.733Z,1009.30
2019-05-30T13:42:35.689Z,1009.32
2019-05-30T13:43:35.706Z,1009.31
2019-05-30T13:44:35.661Z,1009.33
2019-05-30T13:45:35.642Z,1009.23
2019-05-30T13:46:35.628Z,1009.25
2019-05-30T13:47:35.636Z,1009.34
2019-05-30T13:48:35.639Z,1009.29
2019-05-30T13:49:35.588Z,1009.20
2019-05-30T13:50:35.594Z,1009.22
2019-05-30T13:51:35.588Z,1009.13
2019-05-30T13:52:35.558Z,1009.16
2019-05-30T13:53:47.274Z,1009.21
2019-05-30T13:54:35.547Z,1009.14
2019-05-30T13:55:35.538Z,1009.15
2019-05-30T13:56:35.530Z,1009.12
2019-05-30T13:57:35.515Z,1009.20
2019-05-30T13:58:35.518Z,1009.16
2019-05-30T13:59:35.513Z,1009.21
2019-05-30T14:00:35.483Z,1009.04
2019-05-30T14:01:35.493Z,1009.12
2019-05-30T14:02:35.475Z,1009.19
2019-05-30T14:03:35.448Z,1009.18
2019-05-30T14:04:35.863Z,1009.01
2019-05-30T14:05:35.440Z,1009.08
2019-05-30T14:06:35.422Z,1009.05
2019-05-30T14:07:35.413Z,1009.09
2019-05-30T14:08:41.567Z,1009.13
2019-05-30T14:09:36.396Z,1009.06
2019-05-30T14:10:35.391Z,1009.03
2019-05-30T14:11:35.385Z,1009.02
2019-05-30T14:12:35.354Z,1008.94
2019-05-30T14:13:35.385Z,1009.03
2019-05-30T14:14:35.336Z,1009.00
2019-05-30T14:15:35.353Z,1009.04
2019-05-30T14:16:35.331Z,1008.99
2019-05-30T14:17:35.322Z,1008.95
2019-05-30T14:18:35.391Z,1008.99
2019-05-30T14:19:35.296Z,1008.95
2019-05-30T14:20:35.264Z,1008.91
2019-05-30T14:21:35.267Z,1008.95
2019-05-30T14:22:35.256Z,1008.94
2019-05-30T14:23:35.259Z,1008.91
2019-05-30T14:24:45.218Z,1008.94
2019-05-30T14:25:35.230Z,1008.92
2019-05-30T14:26:35.208Z,1008.79
2019-05-30T14:27:35.189Z,1008.87
2019-05-30T14:28:35.192Z,1008.86
2019-05-30T14:29:35.181Z,1008.85
2019-05-30T14:30:35.179Z,1008.93
2019-05-30T14:31:35.162Z,1008.78
2019-05-30T14:32:35.160Z,1008.75
2019-05-30T14:33:35.139Z,1008.71
2019-05-30T14:34:35.147Z,1008.69
2019-05-30T14:35:35.116Z,1008.74
2019-05-30T14:36:35.097Z,1008.75
2019-05-30T14:37:35.090Z,1008.71
2019-05-30T14:38:35.082Z,1008.75
2019-05-30T14:39:35.085Z,1008.71
2019-05-30T14:40:35.070Z,1008.75
2019-05-30T14:41:35.105Z,1008.73
2019-05-30T14:42:35.028Z,1008.73
2019-05-30T14:43:35.057Z,1008.72
2019-05-30T14:44:35.037Z,1008.72
2019-05-30T14:45:35.017Z,1008.74
2019-05-30T14:46:35.002Z,1008.84
2019-05-30T14:47:35.019Z,1008.69
2019-05-30T14:48:35.065Z,1008.74
2019-05-30T14:49:34.976Z,1008.86
2019-05-30T14:50:34.969Z,1008.62
2019-05-30T14:51:35.505Z,1008.71
2019-05-30T14:52:34.926Z,1008.69
2019-05-30T14:53:34.927Z,1008.66
2019-05-30T14:54:34.912Z,1008.64
2019-05-30T14:56:34.887Z,1008.57
2019-05-30T14:57:34.886Z,1008.54
2019-05-30T14:58:34.864Z,1008.54
2019-05-30T14:59:34.862Z,1008.59
2019-05-30T15:00:34.853Z,1008.55
2019-05-30T15:01:34.848Z,1008.59
2019-05-30T15:02:34.869Z,1008.69
2019-05-30T15:03:34.821Z,1008.61
2019-05-30T15:04:34.826Z,1008.56
2019-05-30T15:05:34.805Z,1008.65
2019-05-30T15:06:34.794Z,1008.59
2019-05-30T15:07:34.784Z,1008.60
2019-05-30T15:08:34.784Z,1008.60
2019-05-30T15:09:34.752Z,1008.58
2019-05-30T15:10:34.773Z,1008.51
2019-05-30T15:11:34.734Z,1008.41
2019-05-30T15:12:34.731Z,1008.46
2019-05-30T15:13:34.723Z,1008.55
2019-05-30T15:14:34.739Z,1008.52
2019-05-30T15:15:34.717Z,1008.47
2019-05-30T15:16:34.701Z,1008.52
2019-05-30T15:17:34.682Z,1008.51
2019-05-30T15:18:34.683Z,1008.58
2019-05-30T15:19:34.640Z,1008.50
2019-05-30T15:20:34.645Z,1008.41
2019-05-30T15:21:34.621Z,1008.44
2019-05-30T15:22:34.611Z,1008.48
2019-05-30T15:23:34.611Z,1008.51
2019-05-30T15:24:34.606Z,1008.57
2019-05-30T15:25:34.600Z,1008.64
2019-05-30T15:27:34.571Z,1008.46
2019-05-30T15:28:34.585Z,1008.56
2019-05-30T15:29:34.535Z,1008.55